WAT3630 SASA-SARI
Flight info
| Callsign | WAT3630 |
|---|---|
| Flight time | 1h 23m |
| Altitude | 37000 |
| Route | IXU1 KIBOS DCT JUJ UM789 VAS UM548 ESDIM DCT COSTA COSTA3M |
| Aircraft | A21N/M-SDE3FGHIRWY/LB1 |
Departure
| Time | 2026-04-29 23:33 |
|---|---|
| Airport | Martín Miguel de Güemes International Airport (SASA) |
Arrival
| Time | 2026-04-30 00:56 |
|---|---|
| Airport | Cataratas Del Iguazú International Airport (SARI) |
| Time | Latitude | Longitude | Altitude | Speed | Heading |
|---|---|---|---|---|---|
| 2026-04-29 23:09 | -24.84469 | -65.47904 | 4032 ft | 0 kts | 73° |
| 2026-04-29 23:24 | -24.84471 | -65.47911 | 4032 ft | 2 kts | 73° |
| 2026-04-29 23:24 | -24.84475 | -65.47926 | 4032 ft | 2 kts | 73° |
| 2026-04-29 23:25 | -24.84478 | -65.47943 | 4033 ft | 2 kts | 92° |
| 2026-04-29 23:25 | -24.84476 | -65.47959 | 4034 ft | 2 kts | 109° |
| 2026-04-29 23:25 | -24.84473 | -65.47966 | 4034 ft | 1 kts | 118° |
| 2026-04-29 23:25 | -24.84472 | -65.47969 | 4034 ft | 0 kts | 116° |
| 2026-04-29 23:26 | -24.84472 | -65.47968 | 4034 ft | 0 kts | 116° |
| 2026-04-29 23:27 | -24.84473 | -65.47967 | 4034 ft | 0 kts | 116° |
| 2026-04-29 23:27 | -24.84473 | -65.47965 | 4034 ft | 2 kts | 116° |
| 2026-04-29 23:27 | -24.84502 | -65.47904 | 4032 ft | 14 kts | 120° |
| 2026-04-29 23:28 | -24.84585 | -65.47787 | 4026 ft | 23 kts | 140° |
| 2026-04-29 23:28 | -24.84734 | -65.47707 | 4023 ft | 23 kts | 158° |
| 2026-04-29 23:28 | -24.84881 | -65.47671 | 4023 ft | 21 kts | 207° |
| 2026-04-29 23:28 | -24.84989 | -65.47794 | 4027 ft | 26 kts | 232° |
| 2026-04-29 23:29 | -24.85112 | -65.47975 | 4036 ft | 32 kts | 228° |
| 2026-04-29 23:29 | -24.85262 | -65.48183 | 4047 ft | 36 kts | 233° |
| 2026-04-29 23:29 | -24.85418 | -65.48402 | 4057 ft | 34 kts | 232° |
| 2026-04-29 23:29 | -24.85551 | -65.48594 | 4067 ft | 28 kts | 221° |
| 2026-04-29 23:30 | -24.85735 | -65.48656 | 4071 ft | 33 kts | 191° |
| 2026-04-29 23:30 | -24.86022 | -65.48720 | 4075 ft | 45 kts | 190° |
| 2026-04-29 23:30 | -24.86313 | -65.48782 | 4080 ft | 40 kts | 191° |
| 2026-04-29 23:30 | -24.86574 | -65.48835 | 4087 ft | 35 kts | 193° |
| 2026-04-29 23:31 | -24.86797 | -65.48892 | 4093 ft | 30 kts | 193° |
| 2026-04-29 23:31 | -24.86988 | -65.48866 | 4096 ft | 27 kts | 162° |
| 2026-04-29 23:31 | -24.87030 | -65.48851 | 4096 ft | 26 kts | 162° |
| 2026-04-29 23:31 | -24.87207 | -65.48796 | 4094 ft | 25 kts | 175° |
| 2026-04-29 23:32 | -24.87308 | -65.48890 | 4100 ft | 20 kts | 283° |
| 2026-04-29 23:32 | -24.87217 | -65.48977 | 4101 ft | 17 kts | 357° |
| 2026-04-29 23:32 | -24.87048 | -65.48945 | 4099 ft | 49 kts | 12° |
| 2026-04-29 23:32 | -24.86460 | -65.48817 | 4084 ft | 120 kts | 11° |
| 2026-04-29 23:33 | -24.85433 | -65.48594 | 4083 ft | 174 kts | 11° |
| 2026-04-29 23:33 | -24.84248 | -65.48327 | 4690 ft | 173 kts | 11° |
| 2026-04-29 23:33 | -24.83071 | -65.48062 | 5371 ft | 175 kts | 11° |
| 2026-04-29 23:33 | -24.81888 | -65.47797 | 6043 ft | 174 kts | 11° |
| 2026-04-29 23:34 | -24.80699 | -65.47532 | 6494 ft | 182 kts | 11° |
| 2026-04-29 23:34 | -24.79423 | -65.47255 | 6962 ft | 189 kts | 11° |
| 2026-04-29 23:34 | -24.78108 | -65.46976 | 7471 ft | 195 kts | 11° |
| 2026-04-29 23:34 | -24.76740 | -65.46695 | 7918 ft | 206 kts | 11° |
| 2026-04-29 23:35 | -24.75316 | -65.46368 | 8365 ft | 216 kts | 18° |
| 2026-04-29 23:35 | -24.74069 | -65.45373 | 8643 ft | 233 kts | 51° |
| 2026-04-29 23:35 | -24.73169 | -65.43793 | 8906 ft | 255 kts | 58° |
| 2026-04-29 23:35 | -24.72229 | -65.42078 | 9240 ft | 273 kts | 57° |
| 2026-04-29 23:36 | -24.71202 | -65.40263 | 9678 ft | 285 kts | 57° |
| 2026-04-29 23:36 | -24.70131 | -65.38414 | 10366 ft | 290 kts | 56° |
| 2026-04-29 23:36 | -24.69025 | -65.36524 | 10897 ft | 301 kts | 56° |
| 2026-04-29 23:36 | -24.67861 | -65.34553 | 11200 ft | 318 kts | 55° |
| 2026-04-29 23:37 | -24.66491 | -65.32546 | 11504 ft | 335 kts | 48° |
| 2026-04-29 23:37 | -24.64804 | -65.30677 | 11780 ft | 350 kts | 40° |
| 2026-04-29 23:37 | -24.62888 | -65.28989 | 12273 ft | 357 kts | 37° |
| 2026-04-29 23:37 | -24.60908 | -65.27328 | 12919 ft | 360 kts | 36° |
| 2026-04-29 23:38 | -24.58904 | -65.25659 | 13478 ft | 363 kts | 36° |
| 2026-04-29 23:38 | -24.56874 | -65.23966 | 14051 ft | 367 kts | 36° |
| 2026-04-29 23:38 | -24.54843 | -65.22268 | 14644 ft | 371 kts | 36° |
| 2026-04-29 23:38 | -24.52785 | -65.20545 | 15216 ft | 374 kts | 36° |
| 2026-04-29 23:39 | -24.50715 | -65.18811 | 15771 ft | 378 kts | 36° |
| 2026-04-29 23:39 | -24.48629 | -65.17063 | 16323 ft | 382 kts | 36° |
| 2026-04-29 23:39 | -24.46491 | -65.15273 | 16866 ft | 386 kts | 36° |
| 2026-04-29 23:39 | -24.44363 | -65.13489 | 17414 ft | 389 kts | 36° |
| 2026-04-29 23:40 | -24.42263 | -65.11598 | 17908 ft | 395 kts | 44° |
| 2026-04-29 23:40 | -24.40697 | -65.09077 | 18391 ft | 402 kts | 64° |
| 2026-04-29 23:40 | -24.39975 | -65.06141 | 18942 ft | 407 kts | 83° |
| 2026-04-29 23:40 | -24.40115 | -65.03024 | 19513 ft | 411 kts | 97° |
| 2026-04-29 23:41 | -24.40559 | -64.99927 | 20089 ft | 413 kts | 98° |
| 2026-04-29 23:41 | -24.41006 | -64.96830 | 20620 ft | 416 kts | 97° |
| 2026-04-29 23:41 | -24.41452 | -64.93700 | 21174 ft | 418 kts | 97° |
| 2026-04-29 23:41 | -24.41893 | -64.90527 | 21722 ft | 420 kts | 97° |
| 2026-04-29 23:42 | -24.42322 | -64.87383 | 22257 ft | 422 kts | 97° |
| 2026-04-29 23:42 | -24.42752 | -64.84203 | 22788 ft | 424 kts | 97° |
| 2026-04-29 23:42 | -24.43183 | -64.81001 | 23268 ft | 427 kts | 97° |
| 2026-04-29 23:42 | -24.43611 | -64.77799 | 23695 ft | 431 kts | 97° |
| 2026-04-29 23:43 | -24.44050 | -64.74518 | 24111 ft | 436 kts | 97° |
| 2026-04-29 23:43 | -24.44488 | -64.71239 | 24518 ft | 440 kts | 97° |
| 2026-04-29 23:43 | -24.44933 | -64.67884 | 24945 ft | 444 kts | 97° |
| 2026-04-29 23:43 | -24.45378 | -64.64529 | 25356 ft | 448 kts | 97° |
| 2026-04-29 23:44 | -24.45824 | -64.61157 | 25773 ft | 452 kts | 97° |
| 2026-04-29 23:44 | -24.46275 | -64.57750 | 26158 ft | 455 kts | 97° |
| 2026-04-29 23:44 | -24.46732 | -64.54275 | 26529 ft | 459 kts | 97° |
| 2026-04-29 23:44 | -24.47191 | -64.50800 | 26884 ft | 463 kts | 97° |
| 2026-04-29 23:45 | -24.47647 | -64.47313 | 27235 ft | 466 kts | 97° |
| 2026-04-29 23:45 | -24.48103 | -64.43813 | 27607 ft | 469 kts | 97° |
| 2026-04-29 23:45 | -24.48548 | -64.40266 | 27930 ft | 472 kts | 97° |
| 2026-04-29 23:45 | -24.48990 | -64.36662 | 28208 ft | 476 kts | 97° |
| 2026-04-29 23:46 | -24.49426 | -64.33091 | 28563 ft | 478 kts | 96° |
| 2026-04-29 23:46 | -24.49868 | -64.29467 | 29013 ft | 478 kts | 96° |
| 2026-04-29 23:46 | -24.50305 | -64.25874 | 29463 ft | 477 kts | 96° |
| 2026-04-29 23:46 | -24.50743 | -64.22279 | 29856 ft | 477 kts | 96° |
| 2026-04-29 23:47 | -24.51181 | -64.18666 | 30204 ft | 478 kts | 96° |
| 2026-04-29 23:47 | -24.51618 | -64.15049 | 30554 ft | 479 kts | 96° |
| 2026-04-29 23:47 | -24.52052 | -64.11452 | 30895 ft | 480 kts | 96° |
| 2026-04-29 23:47 | -24.52492 | -64.07816 | 31221 ft | 481 kts | 96° |
| 2026-04-29 23:48 | -24.52933 | -64.04190 | 31548 ft | 481 kts | 97° |
| 2026-04-29 23:48 | -24.53377 | -64.00573 | 31860 ft | 482 kts | 97° |
| 2026-04-29 23:48 | -24.53829 | -63.96909 | 32159 ft | 483 kts | 97° |
| 2026-04-29 23:48 | -24.54277 | -63.93268 | 32450 ft | 484 kts | 97° |
| 2026-04-29 23:49 | -24.54724 | -63.89608 | 32735 ft | 485 kts | 97° |
| 2026-04-29 23:49 | -24.55171 | -63.85945 | 33027 ft | 486 kts | 97° |
| 2026-04-29 23:49 | -24.55614 | -63.82301 | 33316 ft | 487 kts | 97° |
| 2026-04-29 23:49 | -24.56064 | -63.78587 | 33636 ft | 487 kts | 97° |
| 2026-04-29 23:50 | -24.56506 | -63.74940 | 33893 ft | 489 kts | 97° |
| 2026-04-29 23:50 | -24.56953 | -63.71250 | 34156 ft | 490 kts | 97° |
| 2026-04-29 23:50 | -24.57841 | -63.63845 | 34685 ft | 492 kts | 97° |
| 2026-04-29 23:51 | -24.58286 | -63.60131 | 34946 ft | 492 kts | 96° |
| 2026-04-29 23:51 | -24.58734 | -63.56388 | 35196 ft | 493 kts | 96° |
| 2026-04-29 23:51 | -24.59181 | -63.52653 | 35415 ft | 494 kts | 96° |
| 2026-04-29 23:51 | -24.59621 | -63.48938 | 35577 ft | 497 kts | 96° |
| 2026-04-29 23:52 | -24.60068 | -63.45169 | 35734 ft | 499 kts | 96° |
| 2026-04-29 23:52 | -24.60510 | -63.41409 | 35905 ft | 501 kts | 97° |
| 2026-04-29 23:52 | -24.60958 | -63.37622 | 36063 ft | 503 kts | 96° |
| 2026-04-29 23:52 | -24.61408 | -63.33810 | 36246 ft | 504 kts | 96° |
| 2026-04-29 23:53 | -24.61857 | -63.29989 | 36377 ft | 506 kts | 96° |
| 2026-04-29 23:53 | -24.62305 | -63.26186 | 36513 ft | 507 kts | 96° |
| 2026-04-29 23:53 | -24.62762 | -63.22317 | 36658 ft | 509 kts | 96° |
| 2026-04-29 23:53 | -24.63221 | -63.18453 | 36778 ft | 510 kts | 96° |
| 2026-04-29 23:54 | -24.63675 | -63.14623 | 36886 ft | 512 kts | 96° |
| 2026-04-29 23:54 | -24.64134 | -63.10759 | 36989 ft | 514 kts | 96° |
| 2026-04-29 23:54 | -24.64587 | -63.06879 | 36995 ft | 515 kts | 96° |
| 2026-04-29 23:55 | -24.65501 | -62.99071 | 37003 ft | 515 kts | 96° |
| 2026-04-29 23:55 | -24.66404 | -62.91295 | 37006 ft | 516 kts | 96° |
| 2026-04-29 23:56 | -24.67312 | -62.83473 | 37006 ft | 515 kts | 96° |
| 2026-04-29 23:56 | -24.68215 | -62.75653 | 37007 ft | 515 kts | 96° |
| 2026-04-29 23:57 | -24.69103 | -62.67894 | 37006 ft | 515 kts | 96° |
| 2026-04-29 23:57 | -24.69990 | -62.60085 | 37006 ft | 516 kts | 96° |
| 2026-04-29 23:58 | -24.70876 | -62.52310 | 37005 ft | 515 kts | 96° |
| 2026-04-29 23:58 | -24.71767 | -62.44515 | 37000 ft | 516 kts | 96° |
| 2026-04-29 23:59 | -24.72652 | -62.36701 | 36999 ft | 516 kts | 96° |
| 2026-04-29 23:59 | -24.73538 | -62.28892 | 36987 ft | 515 kts | 95° |
| 2026-04-30 00:00 | -24.74409 | -62.21123 | 36991 ft | 515 kts | 96° |
| 2026-04-30 00:00 | -24.75279 | -62.13321 | 36990 ft | 515 kts | 95° |
| 2026-04-30 00:01 | -24.76143 | -62.05525 | 36989 ft | 515 kts | 95° |
| 2026-04-30 00:01 | -24.77004 | -61.97730 | 36983 ft | 515 kts | 95° |
| 2026-04-30 00:02 | -24.78178 | -61.89988 | 36983 ft | 516 kts | 103° |
| 2026-04-30 00:02 | -24.80012 | -61.82392 | 36982 ft | 516 kts | 105° |
| 2026-04-30 00:03 | -24.81764 | -61.74730 | 36989 ft | 515 kts | 100° |
| 2026-04-30 00:03 | -24.82771 | -61.66960 | 37001 ft | 516 kts | 95° |
| 2026-04-30 00:04 | -24.83595 | -61.59139 | 37001 ft | 516 kts | 96° |
| 2026-04-30 00:04 | -24.84436 | -61.51302 | 37007 ft | 516 kts | 95° |
| 2026-04-30 00:05 | -24.85282 | -61.43493 | 37002 ft | 516 kts | 96° |
| 2026-04-30 00:05 | -24.86134 | -61.35623 | 37003 ft | 518 kts | 96° |
| 2026-04-30 00:06 | -24.86979 | -61.27808 | 37004 ft | 517 kts | 96° |
| 2026-04-30 00:06 | -24.87825 | -61.19967 | 37001 ft | 517 kts | 95° |
| 2026-04-30 00:07 | -24.88663 | -61.12118 | 36991 ft | 517 kts | 96° |
| 2026-04-30 00:07 | -24.89492 | -61.04283 | 36990 ft | 517 kts | 95° |
| 2026-04-30 00:08 | -24.90322 | -60.96428 | 36986 ft | 518 kts | 95° |
| 2026-04-30 00:08 | -24.91147 | -60.88590 | 36979 ft | 518 kts | 95° |
| 2026-04-30 00:09 | -24.91966 | -60.80744 | 36978 ft | 518 kts | 95° |
| 2026-04-30 00:09 | -24.92787 | -60.72882 | 36983 ft | 518 kts | 95° |
| 2026-04-30 00:10 | -24.93601 | -60.65038 | 36985 ft | 517 kts | 95° |
| 2026-04-30 00:10 | -24.94407 | -60.57216 | 36994 ft | 516 kts | 95° |
| 2026-04-30 00:11 | -24.95216 | -60.49339 | 36988 ft | 517 kts | 95° |
| 2026-04-30 00:11 | -24.96013 | -60.41519 | 36999 ft | 518 kts | 95° |
| 2026-04-30 00:12 | -24.96810 | -60.33639 | 37000 ft | 517 kts | 95° |
| 2026-04-30 00:12 | -24.97599 | -60.25825 | 36996 ft | 516 kts | 95° |
| 2026-04-30 00:13 | -24.98383 | -60.18003 | 37002 ft | 517 kts | 95° |
| 2026-04-30 00:13 | -24.99169 | -60.10127 | 37001 ft | 516 kts | 95° |
| 2026-04-30 00:14 | -24.99942 | -60.02295 | 37003 ft | 516 kts | 95° |
| 2026-04-30 00:14 | -25.00722 | -59.94423 | 36997 ft | 516 kts | 95° |
| 2026-04-30 00:15 | -25.01483 | -59.86606 | 37004 ft | 518 kts | 95° |
| 2026-04-30 00:15 | -25.02257 | -59.78702 | 37007 ft | 517 kts | 95° |
| 2026-04-30 00:16 | -25.03017 | -59.70846 | 37007 ft | 517 kts | 95° |
| 2026-04-30 00:16 | -25.03828 | -59.63013 | 37003 ft | 518 kts | 96° |
| 2026-04-30 00:17 | -25.04684 | -59.55119 | 37010 ft | 518 kts | 96° |
| 2026-04-30 00:17 | -25.05522 | -59.47272 | 37000 ft | 519 kts | 96° |
| 2026-04-30 00:18 | -25.06355 | -59.39388 | 37005 ft | 519 kts | 96° |
| 2026-04-30 00:18 | -25.07184 | -59.31466 | 36996 ft | 519 kts | 95° |
| 2026-04-30 00:19 | -25.07999 | -59.23634 | 36999 ft | 519 kts | 95° |
| 2026-04-30 00:19 | -25.08820 | -59.15720 | 37009 ft | 519 kts | 95° |
| 2026-04-30 00:20 | -25.09629 | -59.07840 | 37002 ft | 521 kts | 95° |
| 2026-04-30 00:20 | -25.10444 | -58.99926 | 37004 ft | 520 kts | 95° |
| 2026-04-30 00:21 | -25.11251 | -58.91985 | 37000 ft | 520 kts | 95° |
| 2026-04-30 00:21 | -25.12052 | -58.84079 | 37002 ft | 520 kts | 95° |
| 2026-04-30 00:22 | -25.12850 | -58.76191 | 36995 ft | 521 kts | 95° |
| 2026-04-30 00:22 | -25.13640 | -58.68285 | 37000 ft | 521 kts | 95° |
| 2026-04-30 00:23 | -25.14437 | -58.60339 | 37008 ft | 522 kts | 95° |
| 2026-04-30 00:23 | -25.15219 | -58.52409 | 36999 ft | 521 kts | 95° |
| 2026-04-30 00:24 | -25.16002 | -58.44492 | 37000 ft | 522 kts | 95° |
| 2026-04-30 00:24 | -25.16788 | -58.36514 | 37007 ft | 522 kts | 95° |
| 2026-04-30 00:25 | -25.17556 | -58.28612 | 36994 ft | 521 kts | 95° |
| 2026-04-30 00:25 | -25.18323 | -58.20643 | 36998 ft | 523 kts | 95° |
| 2026-04-30 00:26 | -25.19087 | -58.12676 | 37002 ft | 523 kts | 94° |
| 2026-04-30 00:26 | -25.19810 | -58.04713 | 36990 ft | 523 kts | 94° |
| 2026-04-30 00:27 | -25.20520 | -57.96737 | 36991 ft | 523 kts | 94° |
| 2026-04-30 00:27 | -25.21229 | -57.88790 | 36986 ft | 523 kts | 95° |
| 2026-04-30 00:28 | -25.21931 | -57.80806 | 36996 ft | 524 kts | 95° |
| 2026-04-30 00:28 | -25.22643 | -57.72816 | 36980 ft | 524 kts | 94° |
| 2026-04-30 00:29 | -25.23338 | -57.64837 | 36987 ft | 524 kts | 94° |
| 2026-04-30 00:29 | -25.24030 | -57.56867 | 36989 ft | 524 kts | 94° |
| 2026-04-30 00:30 | -25.24832 | -57.48908 | 36989 ft | 524 kts | 97° |
| 2026-04-30 00:30 | -25.25842 | -57.40959 | 36983 ft | 524 kts | 97° |
| 2026-04-30 00:31 | -25.26860 | -57.33015 | 36982 ft | 525 kts | 97° |
| 2026-04-30 00:31 | -25.27872 | -57.25013 | 36986 ft | 526 kts | 97° |
| 2026-04-30 00:32 | -25.28859 | -57.17067 | 36986 ft | 524 kts | 97° |
| 2026-04-30 00:32 | -25.29844 | -57.09104 | 36987 ft | 524 kts | 97° |
| 2026-04-30 00:33 | -25.30827 | -57.01154 | 36988 ft | 524 kts | 96° |
| 2026-04-30 00:33 | -25.31801 | -56.93191 | 36990 ft | 525 kts | 97° |
| 2026-04-30 00:34 | -25.32778 | -56.85220 | 36983 ft | 524 kts | 97° |
| 2026-04-30 00:34 | -25.33742 | -56.77299 | 36527 ft | 524 kts | 96° |
| 2026-04-30 00:34 | -25.34225 | -56.73300 | 35797 ft | 525 kts | 96° |
| 2026-04-30 00:35 | -25.34706 | -56.69293 | 34970 ft | 526 kts | 96° |
| 2026-04-30 00:35 | -25.35189 | -56.65307 | 34223 ft | 524 kts | 96° |
| 2026-04-30 00:35 | -25.35669 | -56.61343 | 33516 ft | 521 kts | 96° |
| 2026-04-30 00:35 | -25.36133 | -56.57410 | 32828 ft | 519 kts | 96° |
| 2026-04-30 00:36 | -25.36584 | -56.53465 | 32112 ft | 517 kts | 96° |
| 2026-04-30 00:36 | -25.37024 | -56.49575 | 31377 ft | 515 kts | 96° |
| 2026-04-30 00:36 | -25.37469 | -56.45660 | 30493 ft | 516 kts | 97° |
| 2026-04-30 00:36 | -25.37914 | -56.41714 | 29727 ft | 514 kts | 97° |
| 2026-04-30 00:37 | -25.38349 | -56.37856 | 29040 ft | 510 kts | 97° |
| 2026-04-30 00:37 | -25.38788 | -56.33979 | 28318 ft | 506 kts | 97° |
| 2026-04-30 00:37 | -25.39220 | -56.30164 | 27599 ft | 503 kts | 97° |
| 2026-04-30 00:37 | -25.39649 | -56.26351 | 27104 ft | 494 kts | 97° |
| 2026-04-30 00:38 | -25.40067 | -56.22622 | 26593 ft | 488 kts | 97° |
| 2026-04-30 00:38 | -25.40483 | -56.18919 | 26075 ft | 482 kts | 97° |
| 2026-04-30 00:38 | -25.40888 | -56.15297 | 25530 ft | 477 kts | 97° |
| 2026-04-30 00:38 | -25.41291 | -56.11677 | 25004 ft | 472 kts | 97° |
| 2026-04-30 00:39 | -25.41688 | -56.08110 | 24490 ft | 467 kts | 97° |
| 2026-04-30 00:39 | -25.42078 | -56.04594 | 23988 ft | 463 kts | 97° |
| 2026-04-30 00:39 | -25.42468 | -56.01067 | 23479 ft | 459 kts | 98° |
| 2026-04-30 00:39 | -25.42851 | -55.97598 | 22971 ft | 455 kts | 98° |
| 2026-04-30 00:40 | -25.43232 | -55.94146 | 22461 ft | 451 kts | 98° |
| 2026-04-30 00:40 | -25.43609 | -55.90729 | 21946 ft | 448 kts | 98° |
| 2026-04-30 00:40 | -25.43982 | -55.87320 | 21427 ft | 446 kts | 98° |
| 2026-04-30 00:40 | -25.44355 | -55.83913 | 20892 ft | 443 kts | 98° |
| 2026-04-30 00:41 | -25.44720 | -55.80572 | 20375 ft | 441 kts | 98° |
| 2026-04-30 00:41 | -25.45083 | -55.77229 | 19837 ft | 438 kts | 98° |
| 2026-04-30 00:41 | -25.45444 | -55.73901 | 19310 ft | 436 kts | 98° |
| 2026-04-30 00:41 | -25.45804 | -55.70588 | 18792 ft | 433 kts | 98° |
| 2026-04-30 00:42 | -25.46169 | -55.67317 | 18259 ft | 431 kts | 99° |
| 2026-04-30 00:42 | -25.46552 | -55.64051 | 17716 ft | 429 kts | 99° |
| 2026-04-30 00:42 | -25.46938 | -55.60772 | 17200 ft | 426 kts | 99° |
| 2026-04-30 00:42 | -25.47315 | -55.57577 | 16659 ft | 424 kts | 99° |
| 2026-04-30 00:43 | -25.47693 | -55.54336 | 16157 ft | 420 kts | 99° |
| 2026-04-30 00:43 | -25.48059 | -55.51194 | 15670 ft | 416 kts | 99° |
| 2026-04-30 00:43 | -25.48423 | -55.48033 | 15194 ft | 413 kts | 99° |
| 2026-04-30 00:43 | -25.48786 | -55.44881 | 14686 ft | 410 kts | 99° |
| 2026-04-30 00:44 | -25.49141 | -55.41792 | 14180 ft | 407 kts | 99° |
| 2026-04-30 00:44 | -25.49495 | -55.38712 | 13677 ft | 404 kts | 98° |
| 2026-04-30 00:44 | -25.49847 | -55.35641 | 13197 ft | 401 kts | 98° |
| 2026-04-30 00:44 | -25.50195 | -55.32602 | 12671 ft | 399 kts | 98° |
| 2026-04-30 00:45 | -25.50543 | -55.29569 | 12134 ft | 397 kts | 97° |
| 2026-04-30 00:45 | -25.50890 | -55.26538 | 11596 ft | 396 kts | 98° |
| 2026-04-30 00:45 | -25.51415 | -55.23575 | 11059 ft | 393 kts | 105° |
| 2026-04-30 00:45 | -25.52252 | -55.20754 | 10718 ft | 384 kts | 111° |
| 2026-04-30 00:46 | -25.53242 | -55.18032 | 10452 ft | 373 kts | 113° |
| 2026-04-30 00:46 | -25.54217 | -55.15451 | 10298 ft | 359 kts | 113° |
| 2026-04-30 00:46 | -25.55166 | -55.12942 | 10154 ft | 347 kts | 113° |
| 2026-04-30 00:46 | -25.56074 | -55.10523 | 10006 ft | 335 kts | 113° |
| 2026-04-30 00:47 | -25.56949 | -55.08183 | 9698 ft | 330 kts | 112° |
| 2026-04-30 00:47 | -25.57815 | -55.05853 | 9343 ft | 326 kts | 112° |
| 2026-04-30 00:47 | -25.58675 | -55.03525 | 9038 ft | 321 kts | 112° |
| 2026-04-30 00:47 | -25.59505 | -55.01275 | 8731 ft | 316 kts | 112° |
| 2026-04-30 00:48 | -25.60338 | -54.99018 | 8339 ft | 314 kts | 112° |
| 2026-04-30 00:48 | -25.61154 | -54.96802 | 8036 ft | 309 kts | 112° |
| 2026-04-30 00:48 | -25.61967 | -54.94596 | 7631 ft | 308 kts | 113° |
| 2026-04-30 00:48 | -25.62764 | -54.92436 | 7259 ft | 305 kts | 113° |
| 2026-04-30 00:49 | -25.63559 | -54.90276 | 6970 ft | 300 kts | 113° |
| 2026-04-30 00:49 | -25.64346 | -54.88137 | 6595 ft | 297 kts | 113° |
| 2026-04-30 00:49 | -25.65115 | -54.86049 | 6245 ft | 294 kts | 113° |
| 2026-04-30 00:49 | -25.65891 | -54.83938 | 5907 ft | 291 kts | 113° |
| 2026-04-30 00:50 | -25.66635 | -54.81910 | 5582 ft | 287 kts | 113° |
| 2026-04-30 00:50 | -25.67385 | -54.79866 | 5254 ft | 283 kts | 113° |
| 2026-04-30 00:50 | -25.68112 | -54.77886 | 5126 ft | 271 kts | 113° |
| 2026-04-30 00:50 | -25.68799 | -54.76014 | 5044 ft | 258 kts | 113° |
| 2026-04-30 00:51 | -25.69245 | -54.74139 | 4899 ft | 249 kts | 89° |
| 2026-04-30 00:51 | -25.68799 | -54.72314 | 4635 ft | 245 kts | 66° |
| 2026-04-30 00:51 | -25.68083 | -54.70610 | 4350 ft | 243 kts | 66° |
| 2026-04-30 00:51 | -25.67400 | -54.68928 | 4199 ft | 233 kts | 67° |
| 2026-04-30 00:52 | -25.66767 | -54.67319 | 4122 ft | 221 kts | 68° |
| 2026-04-30 00:52 | -25.66337 | -54.65760 | 4050 ft | 204 kts | 88° |
| 2026-04-30 00:52 | -25.66606 | -54.64282 | 3861 ft | 191 kts | 112° |
| 2026-04-30 00:52 | -25.67147 | -54.62984 | 3622 ft | 184 kts | 118° |
| 2026-04-30 00:53 | -25.67715 | -54.61755 | 3355 ft | 174 kts | 118° |
| 2026-04-30 00:53 | -25.68226 | -54.60601 | 3150 ft | 157 kts | 117° |
| 2026-04-30 00:53 | -25.68681 | -54.59523 | 2930 ft | 151 kts | 116° |
| 2026-04-30 00:53 | -25.69117 | -54.58472 | 2747 ft | 150 kts | 115° |
| 2026-04-30 00:54 | -25.69542 | -54.57438 | 2552 ft | 149 kts | 115° |
| 2026-04-30 00:54 | -25.69973 | -54.56390 | 2347 ft | 149 kts | 115° |
| 2026-04-30 00:54 | -25.70399 | -54.55349 | 2138 ft | 148 kts | 115° |
| 2026-04-30 00:54 | -25.70827 | -54.54303 | 1916 ft | 147 kts | 114° |
| 2026-04-30 00:55 | -25.71232 | -54.53278 | 1716 ft | 147 kts | 114° |
| 2026-04-30 00:55 | -25.71709 | -54.52279 | 1532 ft | 146 kts | 118° |
| 2026-04-30 00:55 | -25.72516 | -54.50250 | 1218 ft | 146 kts | 114° |
| 2026-04-30 00:56 | -25.72924 | -54.49259 | 1016 ft | 145 kts | 115° |
| 2026-04-30 00:56 | -25.73346 | -54.48252 | 895 ft | 136 kts | 115° |
| 2026-04-30 00:56 | -25.73618 | -54.47602 | 882 ft | 49 kts | 116° |
| 2026-04-30 00:56 | -25.73675 | -54.47476 | 882 ft | 7 kts | 116° |
| 2026-04-30 00:57 | -25.73699 | -54.47420 | 883 ft | 8 kts | 116° |
| 2026-04-30 00:57 | -25.73728 | -54.47356 | 883 ft | 12 kts | 116° |
| 2026-04-30 00:57 | -25.73716 | -54.47287 | 883 ft | 9 kts | 343° |
| 2026-04-30 00:57 | -25.73651 | -54.47340 | 882 ft | 12 kts | 324° |
| 2026-04-30 00:58 | -25.73571 | -54.47403 | 879 ft | 14 kts | 324° |
| 2026-04-30 00:58 | -25.73485 | -54.47471 | 879 ft | 15 kts | 324° |
| 2026-04-30 00:58 | -25.73398 | -54.47539 | 879 ft | 15 kts | 323° |
| 2026-04-30 00:58 | -25.73331 | -54.47623 | 881 ft | 13 kts | 302° |
| 2026-04-30 00:59 | -25.73257 | -54.47619 | 880 ft | 8 kts | 24° |
| 2026-04-30 00:59 | -25.73250 | -54.47615 | 880 ft | 0 kts | 24° |